Fairbank, Illinois
Current Conditions -  °F | °C
As of 11:52 PM on Wednesday 17 Dec 2014 (Local Time) from KMLI Reporting Station
Clear Clear  
Wind Chill: 19°   Ceiling: Unl
Heat Index: 19°   Visibility: 10mi
Dew Point: 15°   Wind: 0mph
Humidity: 85%   Direction: NA
Pressure: 30.31"   Gusts: NA
Location:  41.4828°N, 90.1801°W
Report Text: KMLI 180552Z AUTO 00000KT 10SM CLR M07/M09 A3031 RMK AO2 SLP273 T10721094 11044 21078 410171078 50002 $
Loading
Personal Weather Stations






























Interactive Weather Map New forecast layout! Learn more

10-Day Weather Forecast

Advertisements
Track Severe Weather on mobile